Terminal Aerodrome Forecast
Issued by NWS Sterling, VA

Home | Current Version | Previous Version | Text Only | Print | Product List | Glossary On
Versions: 1 2 3 4 5 6 7 8 9 10 11 12 13 14 15 16 17 18 19 20 21 22 23 24 25 26 27 28 29 30 31 32
220
FTUS41 KLWX 251347 AAA
TAFCHO
TAF AMD
KCHO 251347Z 2514/2612 00000KT 1/4SM -RA FG VV002 WS020/22035KT
     FM251500 VRB03KT 3/4SM -RA BR OVC003 WS020/23040KT
     FM251700 21007KT P6SM -RA OVC045
     FM251800 22009KT P6SM OVC250
     FM260000 26006KT P6SM BKN250
     FM261100 00000KT P6SM OVC060=

USA.gov is the U.S. government's official web portal to all federal, state and local government web resources and services.